Relevés horaires Matro (Suisse)


Relevés horaires à Matro - Samedi 26 Déc. 2020
Heure UTC1 Température [°C] Vent [km/h] Hum. [%] Pres.4 [hPa] Visi. [Km] Nébu. [octa] Préc.5 [mm] Cond.
2m. Res. Ros. Dir.2 Vit. Moy. Raf.3
23:00 -4.6 -7.1 -38.3 O 5.6 -- 22.2 5 850(-1.5/3h) -- -- -- --
22:00 -4.8 -11 -38.2 NO 18.5 -- 31.5 5 850(-0.5/3h) -- -- -- --
21:00 -5.6 -13 -35.9 NNO 24.1 -- 37.0 7 850(-0.1/3h) -- -- -- --
20:00 -5.4 -13.2 -36.5 NNO 27.8 -- 37.0 6 850(0.4/3h) -- -- -- --
19:00 -6.2 -13.7 -33.6 NO 24.1 -- 31.5 9 850(0.3/3h) -- -- -- --
18:00 -6.8 -15.5 -32.8 NNO 31.5 -- 61.1 10 850(0.1/3h) -- -- -- --
17:00 -7.1 -14.9 -32.0 NO 24.1 -- 46.3 12 850(0.3/3h) -- -- -- --
16:00 -7.5 -15.7 -30.7 NO 25.9 -- 48.2 13 850(-0.1/3h) -- -- -- --
15:00 -7.4 -16.8 -29.5 NNO 35.2 -- 61.1 15 850(-0.5/3h) -- -- -- --
14:00 -7.2 -16.5 -28.1 NNO 35.2 -- 55.6 17 850(-0.9/3h) -- -- -- --
13:00 -7.2 -16.7 -28.0 NO 37.0 -- 50.0 17 850(-0.5/3h) -- -- -- --
12:00 -8.1 -16.5 -26.5 ONO 25.9 -- 79.6 21 850(0.4/3h) -- -- -- --
11:00 -10.2 -19.7 -21.2 NO 29.6 -- 44.4 40 850(1.1/3h) -- -- -- --
10:00 -10.7 -20.6 -19.8 NNO 31.5 -- 55.6 47 850(1.3/3h) -- -- -- --
09:00 -10.7 -22.4 -20.4 NNO 46.3 -- 79.6 45 850(1.1/3h) -- -- -- --
08:00 -11.1 -22.9 -19.9 NNO 46.3 -- 79.6 48 850(1.2/3h) -- -- -- --
07:00 -11.2 -23 -19.2 NNO 46.3 -- 74.1 51 850(1.2/3h) -- -- -- --
06:00 -11.0 -22.2 -18.5 NNO 40.7 -- 87.0 54 850(0.9/3h) -- -- -- --
05:00 -10.7 -22.7 -18.2 NNO 50.0 -- 77.8 54 850(0.2/3h) -- -- -- --
04:00 -10.3 -22.4 -17.5 NNO 51.9 -- 75.9 55 850(0.3/3h) -- -- -- --
03:00 -10.4 -21.6 -16.7 NNO 42.6 -- 87.0 60 850(0.2/3h) -- -- -- --
02:00 -10.3 -22 -16.1 NNO 48.2 -- 87.0 62 850(0.6/3h) -- -- -- --
01:00 -9.9 -22.3 -15.9 NNO 57.4 -- 77.8 61 850(0.6/3h) -- -- -- --
00:00 -9.8 -21.5 -15.9 NNO 50.0 -- 100.0 61 850(1.1/3h) -- -- -- --

1 Coordinated Universal Time. Actuellement il est 07:00 locale et 05:00 UTC.

2 Le vent souffle depuis la direction indiquée vers la direction oposée.

3 Les rafales max. sont disponible 40 min après l'heure du relevé.

4 Pour les stations d'altitude (plus de 600m) le géopotentiel du niveau le plus proche de la pression obligatoire est indiqué.

5 Les stations disposant d'un diffuseur peuvent indiquer "trace". Cela signifie que des précipitations ont touchés le sol mais que la quantité est inférieure à 0.1 mm.

Copyright

Les données affichées sur cette page sont la propriété exclusive de Météo Suisse.

Récapitulatif de la journée
Température [°C] Vent [km/h] Ensoleillement4 [h] Precipitations totale5 [mm] Pression [Hpa]
Min1 Max.2 Moy.3 Max. Min Max.
-11.1 -7.1 0 100.0 7 h 30 min 0 850.0 850.0

1 Température minimale relevée entre 18:00 UTC la veille et 18:00 UTC le jour donné.

2 Température maximale relevée entre 06:00 UTC le jour donné et 06:00 UTC le lendemain.

3 Vent moyen de la journée basé sur les relevés horaires.

4 Ensoleillement en heures relevé entre 06:00 UTC la veille et 06:00 UTC le jour donné.

5 Précipitations totales tombées entre 06:00 UTC la jour donné et 06:00 UTC le lendemain.

Graphiques horaires